Данни от 03.12.2022 г. 01:03:59

Температура вътрешна: 18.6 °C
Температура външна: 5.9 °C
Атмосферно налягане: 1009.0 hPa
Атмосферно налягане на морско равнище: 1027.0 hPa
Влажност: 58.4 %



История от последните 24 часа

Дата и часTin [°C]P [hPa]Psl [hPa]H [%]Tout [°C]
   03.12.2022 г. 01:00:59      18.6      1009.0      1027.1      58.1      5.9   
   03.12.2022 г. 00:30:58      18.8      1009.0      1027.0      58.1      6.1   
   03.12.2022 г. 00:00:59      19.1      1009.1      1027.1      58.1      6.1   
   02.12.2022 г. 23:30:58      19.4      1009.1      1027.2      57.7      6.5   
   02.12.2022 г. 23:00:59      20.0      1008.9      1026.9      57.4      6.1   
   02.12.2022 г. 22:30:58      19.9      1008.7      1026.7      57.6      6.4   
   02.12.2022 г. 22:00:59      19.8      1008.9      1026.9      57.1      6.1   
   02.12.2022 г. 21:30:58      19.7      1008.8      1026.8      57.1      6.3   
   02.12.2022 г. 21:00:59      19.6      1008.4      1026.4      56.9      6.1   
   02.12.2022 г. 20:30:58      19.6      1008.4      1026.4      56.8      6.3   
   02.12.2022 г. 20:00:59      19.5      1008.4      1026.4      57.3      6.0   
   02.12.2022 г. 19:30:58      19.5      1008.1      1026.1      56.8      6.1   
   02.12.2022 г. 19:00:59      19.3      1008.0      1026.0      56.3      6.3   
   02.12.2022 г. 18:30:58      18.3      1007.9      1025.9      57.2      6.3   
   02.12.2022 г. 18:00:59      18.1      1007.8      1025.8      57.4      6.0   
   02.12.2022 г. 17:30:58      17.7      1007.6      1025.6      57.3      5.6   
   02.12.2022 г. 17:00:59      17.3      1007.5      1025.4      57.7      5.4   
   02.12.2022 г. 16:30:59      17.0      1007.3      1025.3      57.9      5.3   
   02.12.2022 г. 16:00:59      17.0      1007.1      1025.0      58.4      5.1   
   02.12.2022 г. 15:30:59      16.9      1006.9      1024.9      57.0      5.8   
   02.12.2022 г. 15:00:59      16.9      1006.9      1024.8      57.5      5.1   
   02.12.2022 г. 14:30:59      17.0      1006.7      1024.7      57.6      5.4   
   02.12.2022 г. 14:00:58      17.0      1006.6      1024.6      57.3      4.9   
   02.12.2022 г. 13:30:59      17.0      1006.6      1024.6      57.7      6.0   
   02.12.2022 г. 13:00:58      17.1      1006.7      1024.7      56.8      6.1   
   02.12.2022 г. 12:30:59      17.1      1006.8      1024.8      57.1      5.8   
   02.12.2022 г. 12:00:58      17.2      1006.6      1024.6      57.4      6.0   
   02.12.2022 г. 11:30:59      17.2      1006.9      1024.9      58.3      5.8   
   02.12.2022 г. 11:00:58      17.2      1007.1      1025.1      57.7      5.9   
   02.12.2022 г. 10:30:59      17.2      1007.2      1025.2      57.7      6.0   
   02.12.2022 г. 10:00:58      17.3      1007.1      1025.1      57.5      6.0   
   02.12.2022 г. 09:30:59      17.2      1006.9      1024.9      58.1      6.0   
   02.12.2022 г. 09:00:58      17.3      1006.7      1024.7      58.7      5.8   
   02.12.2022 г. 08:30:59      17.4      1006.7      1024.7      59.1      5.8   
   02.12.2022 г. 08:00:58      17.5      1006.6      1024.5      58.4      5.1   
   02.12.2022 г. 07:30:59      17.6      1006.4      1024.4      59.4      5.1   
   02.12.2022 г. 07:00:58      17.7      1006.2      1024.2      60.0      4.9   
   02.12.2022 г. 06:30:59      17.7      1005.9      1023.8      60.4      4.8   
   02.12.2022 г. 06:00:58      18.1      1005.8      1023.8      61.7      4.9   
   02.12.2022 г. 05:30:59      18.2      1005.8      1023.7      61.8      4.9   
   02.12.2022 г. 05:00:58      18.2      1005.7      1023.6      60.9      4.9   
   02.12.2022 г. 04:30:59      18.3      1005.7      1023.7      61.3      4.9   
   02.12.2022 г. 04:00:58      18.3      1005.7      1023.6      60.9      4.8   
   02.12.2022 г. 03:30:59      18.4      1005.7      1023.7      61.1      5.1   
   02.12.2022 г. 03:00:58      18.5      1005.8      1023.8      60.7      4.9   
   02.12.2022 г. 02:30:59      18.6      1005.7      1023.6      59.7      4.5   
   02.12.2022 г. 02:00:58      18.7      1005.6      1023.6      60.3      5.1   
   02.12.2022 г. 01:30:59      18.8      1005.5      1023.5      59.6      5.1   

BaroSL graphic

TEMPE graphic